createdAt,value
2022-09-05T00:00:14.874Z,2.70
2022-09-05T00:02:48.792Z,2.43
2022-09-05T00:05:34.030Z,2.80
2022-09-05T00:08:11.411Z,2.20
2022-09-05T00:11:39.489Z,2.40
2022-09-05T00:13:44.815Z,2.63
2022-09-05T00:16:30.145Z,2.67
2022-09-05T00:24:33.003Z,2.40
2022-09-05T00:24:36.937Z,2.67
2022-09-05T00:25:31.412Z,2.70
2022-09-05T00:28:01.189Z,2.57
2022-09-05T00:31:50.793Z,2.50
2022-09-05T00:34:17.539Z,2.40
2022-09-05T00:36:45.735Z,2.77
2022-09-05T00:39:21.500Z,2.70
2022-09-05T00:41:51.408Z,2.70
2022-09-05T00:44:26.483Z,2.43
2022-09-05T00:47:01.905Z,2.53
2022-09-05T00:49:38.664Z,2.63
2022-09-05T00:52:28.003Z,2.40
2022-09-05T00:55:37.876Z,2.30
2022-09-05T00:58:34.030Z,2.47
2022-09-05T01:01:12.085Z,2.43
2022-09-05T01:03:53.812Z,2.40
2022-09-05T01:06:30.672Z,2.27
2022-09-05T01:09:24.938Z,2.60
2022-09-05T01:12:06.776Z,2.50
2022-09-05T01:14:58.612Z,2.37
2022-09-05T01:17:37.358Z,2.43
2022-09-05T01:20:18.491Z,3.00
2022-09-05T01:23:08.525Z,2.50
2022-09-05T01:26:17.640Z,2.70
2022-09-05T01:29:18.775Z,2.70
2022-09-05T01:32:20.928Z,2.43
2022-09-05T01:34:56.052Z,2.33
2022-09-05T01:37:46.794Z,2.40
2022-09-05T01:40:26.906Z,2.67
2022-09-05T01:43:25.632Z,2.93
2022-09-05T01:46:22.259Z,2.53
2022-09-05T01:49:08.860Z,2.67
2022-09-05T01:52:00.590Z,2.73
2022-09-05T01:55:01.266Z,2.57
2022-09-05T01:57:40.673Z,2.50
2022-09-05T02:00:47.297Z,2.67
2022-09-05T02:03:19.416Z,2.87
2022-09-05T02:06:24.552Z,3.00
2022-09-05T02:09:10.244Z,2.80
2022-09-05T02:11:57.538Z,2.40
2022-09-05T02:15:16.570Z,3.20
2022-09-05T02:17:50.667Z,2.73
2022-09-05T02:20:43.811Z,3.10
2022-09-05T02:23:40.244Z,2.90
2022-09-05T02:26:18.062Z,2.80
2022-09-05T02:29:00.173Z,2.90
2022-09-05T02:31:47.880Z,2.90
2022-09-05T02:34:46.490Z,2.70
2022-09-05T02:39:05.435Z,3.00
2022-09-05T02:45:09.339Z,3.10
2022-09-05T02:45:18.371Z,2.87
2022-09-05T02:47:22.695Z,2.93
2022-09-05T02:52:19.857Z,2.77
2022-09-05T02:57:29.755Z,2.87
2022-09-05T02:57:41.152Z,3.27
2022-09-05T02:59:36.136Z,3.10
2022-09-05T03:02:31.093Z,3.10
2022-09-05T03:05:20.511Z,3.10
2022-09-05T03:08:07.744Z,2.90
2022-09-05T03:10:55.683Z,3.10
2022-09-05T03:13:54.346Z,2.87
2022-09-05T03:16:47.136Z,2.87
2022-09-05T03:19:56.888Z,3.20
2022-09-05T03:22:56.849Z,3.30
2022-09-05T03:25:35.350Z,3.10
2022-09-05T03:28:08.009Z,3.43
2022-09-05T03:30:52.939Z,3.40
2022-09-05T03:33:54.256Z,3.07
2022-09-05T03:37:00.877Z,3.73
2022-09-05T03:39:39.550Z,2.90
2022-09-05T03:42:31.325Z,3.17
2022-09-05T03:45:29.854Z,3.40
2022-09-05T03:48:33.586Z,3.37
2022-09-05T03:57:04.925Z,3.40
2022-09-05T03:57:17.819Z,3.70
2022-09-05T03:57:47.940Z,3.50
2022-09-05T04:00:25.881Z,3.53
2022-09-05T04:07:04.966Z,3.63
2022-09-05T04:08:16.454Z,3.43
2022-09-05T04:09:05.825Z,3.50
2022-09-05T04:11:40.002Z,3.50
2022-09-05T04:14:22.624Z,3.33
2022-09-05T04:16:53.498Z,3.00
2022-09-05T04:19:24.072Z,3.83
2022-09-05T04:22:19.877Z,3.80
2022-09-05T04:25:04.469Z,3.90
2022-09-05T04:28:02.177Z,3.50
2022-09-05T04:30:44.189Z,3.90
2022-09-05T04:33:36.965Z,3.57
2022-09-05T04:36:23.774Z,3.30
2022-09-05T04:39:09.670Z,3.30
2022-09-05T04:41:43.042Z,3.93
2022-09-05T04:44:17.254Z,3.40
2022-09-05T04:46:53.694Z,3.80
2022-09-05T04:49:29.186Z,4.00
2022-09-05T04:52:31.485Z,3.90
2022-09-05T04:55:01.448Z,3.90
2022-09-05T04:57:53.678Z,3.57
2022-09-05T05:05:58.908Z,3.73
2022-09-05T05:06:14.075Z,3.63
2022-09-05T05:06:45.376Z,3.67
2022-09-05T05:09:39.137Z,4.07
2022-09-05T05:17:53.679Z,3.57
2022-09-05T05:18:09.412Z,3.53
2022-09-05T05:18:39.651Z,4.07
2022-09-05T05:21:08.141Z,3.50
2022-09-05T05:23:39.926Z,4.30
2022-09-05T05:26:18.680Z,3.70
2022-09-05T05:29:09.969Z,3.70
2022-09-05T05:31:40.622Z,3.97
2022-09-05T05:34:24.614Z,3.40
2022-09-05T05:37:22.912Z,4.10
2022-09-05T05:40:07.310Z,3.70
2022-09-05T05:42:35.553Z,3.80
2022-09-05T05:45:02.813Z,3.70
2022-09-05T05:47:35.470Z,3.83
2022-09-05T05:50:11.437Z,4.10
2022-09-05T05:52:51.008Z,3.90
2022-09-05T05:55:52.845Z,4.10
2022-09-05T05:58:44.108Z,3.80
2022-09-05T06:01:38.877Z,3.37
2022-09-05T06:04:44.781Z,3.53
2022-09-05T06:07:25.469Z,3.77
2022-09-05T06:14:49.842Z,4.00
2022-09-05T06:15:04.095Z,4.00
2022-09-05T06:16:27.452Z,4.13
2022-09-05T06:19:00.030Z,3.60
2022-09-05T06:22:10.315Z,4.00
2022-09-05T06:25:17.206Z,3.60
2022-09-05T06:28:19.044Z,3.97
2022-09-05T06:30:57.195Z,3.87
2022-09-05T06:34:04.084Z,3.57
2022-09-05T06:36:58.085Z,3.87
2022-09-05T06:39:58.655Z,3.90
2022-09-05T06:42:52.341Z,3.87
2022-09-05T06:45:40.061Z,3.83
2022-09-05T06:48:46.045Z,3.60
2022-09-05T06:51:49.473Z,3.70
2022-09-05T06:54:48.577Z,3.70
2022-09-05T06:57:54.928Z,4.00
2022-09-05T07:00:27.051Z,4.10
2022-09-05T07:03:00.586Z,3.97
2022-09-05T07:05:40.018Z,3.57
2022-09-05T07:08:36.262Z,3.57
2022-09-05T07:11:35.645Z,3.70
2022-09-05T07:14:30.278Z,3.90
2022-09-05T07:17:16.847Z,3.47
2022-09-05T07:19:49.704Z,3.47
2022-09-05T07:22:47.058Z,3.80
2022-09-05T07:25:18.381Z,4.13
2022-09-05T07:28:26.552Z,4.00
2022-09-05T07:30:52.025Z,3.70
2022-09-05T07:33:20.821Z,3.87
2022-09-05T07:35:50.498Z,4.10
2022-09-05T07:38:50.229Z,3.20
2022-09-05T07:41:26.935Z,3.40
2022-09-05T07:44:09.109Z,3.70
2022-09-05T07:46:38.797Z,3.50
2022-09-05T07:49:09.877Z,3.37
2022-09-05T07:56:49.662Z,4.00
2022-09-05T07:57:01.149Z,3.57
2022-09-05T07:57:30.675Z,3.70
2022-09-05T08:00:06.584Z,3.77
2022-09-05T08:02:33.508Z,3.43
2022-09-05T08:05:05.841Z,3.20
2022-09-05T08:07:48.994Z,3.60
2022-09-05T08:10:35.673Z,3.77
2022-09-05T08:13:36.335Z,3.53
2022-09-05T08:16:10.421Z,3.33
2022-09-05T08:19:33.170Z,3.30
2022-09-05T08:22:02.725Z,3.37
2022-09-05T08:24:42.495Z,2.97
2022-09-05T08:27:26.368Z,3.00
2022-09-05T08:30:25.910Z,3.53
2022-09-05T08:33:10.476Z,3.40
2022-09-05T08:35:45.088Z,3.30
2022-09-05T08:38:14.764Z,2.97
2022-09-05T08:41:17.500Z,2.97
2022-09-05T08:46:36.135Z,3.03
2022-09-05T08:47:20.649Z,3.03
2022-09-05T08:50:27.038Z,3.30
2022-09-05T08:53:26.822Z,2.90
2022-09-05T08:56:13.313Z,3.20
2022-09-05T08:59:28.391Z,3.07
2022-09-05T09:02:47.207Z,3.43
2022-09-05T09:05:16.095Z,3.40
2022-09-05T09:07:53.653Z,3.13
2022-09-05T09:10:31.647Z,2.87
2022-09-05T09:13:12.626Z,2.83
2022-09-05T09:15:52.479Z,3.20
2022-09-05T09:18:21.466Z,2.60
2022-09-05T09:20:59.635Z,4.80
2022-09-05T09:23:49.468Z,3.57
2022-09-05T09:26:24.662Z,2.90
2022-09-05T09:29:08.206Z,3.80
2022-09-05T09:31:43.668Z,3.40
2022-09-05T09:34:36.691Z,2.83
2022-09-05T09:37:14.936Z,3.77
2022-09-05T09:40:09.444Z,2.70
2022-09-05T09:43:06.918Z,3.50
2022-09-05T09:46:11.685Z,2.70
2022-09-05T09:48:54.026Z,2.90
2022-09-05T09:51:30.443Z,2.60
2022-09-05T09:54:06.022Z,2.73
2022-09-05T09:57:01.821Z,3.20
2022-09-05T09:59:54.777Z,3.03
2022-09-05T10:06:28.768Z,3.43
2022-09-05T10:10:38.496Z,3.17
2022-09-05T10:10:54.449Z,3.23
2022-09-05T10:11:54.729Z,3.57
2022-09-05T10:15:31.547Z,3.07
2022-09-05T10:18:05.602Z,3.17
2022-09-05T10:20:49.690Z,3.30
2022-09-05T10:23:57.947Z,3.00
2022-09-05T10:27:02.127Z,2.90
2022-09-05T10:29:52.681Z,3.30
2022-09-05T10:35:11.368Z,3.73
2022-09-05T10:35:34.137Z,3.40
2022-09-05T10:38:20.538Z,3.20
2022-09-05T10:41:20.128Z,3.17
2022-09-05T10:43:50.853Z,3.87
2022-09-05T10:46:46.655Z,3.53
2022-09-05T10:49:08.316Z,3.30
2022-09-05T10:51:45.208Z,3.17
2022-09-05T10:54:21.548Z,3.53
2022-09-05T10:57:16.756Z,3.30
2022-09-05T11:02:21.457Z,3.43
2022-09-05T11:02:56.171Z,3.53
2022-09-05T11:05:38.550Z,3.27
2022-09-05T11:08:12.713Z,3.30
2022-09-05T11:11:01.305Z,3.50
2022-09-05T11:13:50.817Z,3.50
2022-09-05T11:16:35.394Z,3.40
2022-09-05T11:19:07.493Z,3.27
2022-09-05T11:21:48.711Z,3.17
2022-09-05T11:24:29.990Z,3.60
2022-09-05T11:27:24.899Z,4.03
2022-09-05T11:30:10.309Z,3.00
2022-09-05T11:39:46.454Z,2.90
2022-09-05T11:39:47.457Z,3.50
2022-09-05T11:40:24.933Z,3.13
2022-09-05T11:41:57.470Z,3.17
2022-09-05T11:44:36.127Z,3.00
2022-09-05T11:47:44.432Z,2.97
2022-09-05T11:50:29.809Z,2.90
2022-09-05T11:53:33.991Z,3.07
2022-09-05T11:56:31.564Z,3.00
2022-09-05T11:59:32.831Z,3.10
2022-09-05T12:02:26.556Z,2.93
2022-09-05T12:05:49.246Z,3.00
2022-09-05T12:08:28.688Z,3.13
2022-09-05T12:11:06.852Z,2.90
2022-09-05T12:13:42.838Z,3.27
2022-09-05T12:16:47.078Z,3.00
2022-09-05T12:19:22.939Z,2.80
2022-09-05T12:22:09.850Z,2.93
2022-09-05T12:27:36.722Z,2.90
2022-09-05T12:29:27.809Z,2.53
2022-09-05T12:33:07.489Z,3.13
2022-09-05T12:36:07.310Z,2.97
2022-09-05T12:40:44.685Z,2.60
2022-09-05T12:41:37.925Z,2.87
2022-09-05T12:43:23.730Z,2.73
2022-09-05T12:45:37.090Z,2.57
2022-09-05T12:48:39.272Z,2.70
2022-09-05T12:51:46.376Z,2.70
2022-09-05T12:54:27.892Z,2.80
2022-09-05T13:02:55.168Z,2.87
2022-09-05T13:03:05.379Z,3.53
2022-09-05T13:03:28.773Z,3.23
2022-09-05T13:06:11.584Z,3.20
2022-09-05T13:09:01.585Z,3.43
2022-09-05T13:14:54.223Z,3.33
2022-09-05T13:15:01.807Z,3.50
2022-09-05T13:17:30.462Z,3.10
2022-09-05T13:19:58.487Z,3.80
2022-09-05T13:22:26.378Z,4.60
2022-09-05T13:25:08.411Z,3.40
2022-09-05T13:27:41.331Z,3.70
2022-09-05T13:35:22.373Z,3.63
2022-09-05T13:38:10.928Z,3.60
2022-09-05T13:38:30.590Z,3.70
2022-09-05T13:39:14.574Z,3.60
2022-09-05T13:41:51.023Z,3.47
2022-09-05T13:44:26.208Z,3.87
2022-09-05T13:46:58.144Z,3.30
2022-09-05T13:49:32.376Z,3.40
2022-09-05T13:52:20.993Z,3.23
2022-09-05T13:54:52.311Z,2.83
2022-09-05T13:57:31.640Z,3.30
2022-09-05T14:00:28.207Z,3.20
2022-09-05T14:03:39.037Z,3.33
2022-09-05T14:06:46.645Z,3.20
2022-09-05T14:09:38.520Z,3.33
2022-09-05T14:12:17.648Z,3.17
2022-09-05T14:15:10.872Z,3.23
2022-09-05T14:18:00.339Z,3.67
2022-09-05T14:20:52.007Z,3.33
2022-09-05T14:23:22.618Z,3.47
2022-09-05T14:26:02.825Z,3.20
2022-09-05T14:28:34.099Z,3.50
2022-09-05T14:33:48.834Z,3.63
2022-09-05T14:37:48.904Z,3.47
2022-09-05T14:37:51.594Z,3.13
2022-09-05T14:40:35.433Z,3.60
2022-09-05T14:43:26.761Z,3.47
2022-09-05T14:46:14.315Z,3.40
2022-09-05T14:49:18.452Z,3.10
2022-09-05T14:51:51.757Z,3.10
2022-09-05T15:02:41.866Z,3.57
2022-09-05T15:03:00.298Z,3.57
2022-09-05T15:03:09.106Z,3.30
2022-09-05T15:05:46.041Z,3.70
2022-09-05T15:11:20.324Z,3.40
2022-09-05T15:12:24.223Z,3.90
2022-09-05T15:14:04.792Z,3.50
2022-09-05T15:16:38.079Z,3.23
2022-09-05T15:19:04.830Z,3.23
2022-09-05T15:21:35.269Z,3.30
2022-09-05T15:24:15.779Z,3.30
2022-09-05T15:27:02.631Z,3.33
2022-09-05T15:29:34.101Z,3.60
2022-09-05T15:32:22.634Z,3.20
2022-09-05T15:34:50.498Z,3.10
2022-09-05T15:37:40.579Z,2.77
2022-09-05T15:40:23.396Z,3.10
2022-09-05T15:42:54.962Z,2.83
2022-09-05T15:45:47.014Z,3.00
2022-09-05T15:48:22.075Z,3.00
2022-09-05T15:50:53.035Z,2.77
2022-09-05T15:53:29.327Z,3.03
2022-09-05T15:56:14.031Z,2.90
2022-09-05T15:58:53.762Z,2.53
2022-09-05T16:01:58.261Z,2.77
2022-09-05T16:08:56.814Z,2.80
2022-09-05T16:10:39.838Z,3.10
2022-09-05T16:10:49.989Z,2.40
2022-09-05T16:13:06.574Z,2.70
2022-09-05T16:21:09.625Z,2.63
2022-09-05T16:23:13.513Z,2.90
2022-09-05T16:23:25.130Z,2.63
2022-09-05T16:24:35.026Z,3.00
2022-09-05T16:27:37.113Z,3.30
2022-09-05T16:30:12.046Z,2.90
2022-09-05T16:32:50.952Z,2.60
2022-09-05T16:35:25.064Z,2.90
2022-09-05T16:38:24.187Z,2.50
2022-09-05T16:41:05.764Z,2.90
2022-09-05T16:43:37.680Z,2.57
2022-09-05T16:46:17.056Z,2.60
2022-09-05T16:49:02.431Z,2.87
2022-09-05T16:51:50.288Z,2.83
2022-09-05T16:54:38.526Z,2.80
2022-09-05T16:57:17.502Z,2.70
2022-09-05T16:59:45.725Z,2.70
2022-09-05T17:02:29.129Z,2.87
2022-09-05T17:05:25.689Z,2.83
2022-09-05T17:08:04.226Z,2.70
2022-09-05T17:10:43.877Z,2.80
2022-09-05T17:13:33.384Z,2.80
2022-09-05T17:16:03.095Z,2.67
2022-09-05T17:18:35.926Z,2.60
2022-09-05T17:23:22.274Z,2.37
2022-09-05T17:29:25.142Z,3.13
2022-09-05T17:29:49.042Z,2.57
2022-09-05T17:31:48.975Z,2.60
2022-09-05T17:33:44.699Z,3.10
2022-09-05T17:36:51.563Z,2.80
2022-09-05T17:39:53.900Z,2.50
2022-09-05T17:42:26.253Z,2.80
2022-09-05T17:45:12.929Z,2.60
2022-09-05T17:47:53.790Z,2.50
2022-09-05T17:50:45.200Z,2.77
2022-09-05T17:53:26.759Z,2.47
2022-09-05T17:55:55.036Z,2.67
2022-09-05T17:58:48.978Z,2.73
2022-09-05T18:01:27.115Z,2.83
2022-09-05T18:04:16.495Z,2.80
2022-09-05T18:09:41.263Z,2.97
2022-09-05T18:13:12.631Z,2.80
2022-09-05T18:15:38.886Z,2.60
2022-09-05T18:18:28.585Z,2.70
2022-09-05T18:21:21.193Z,2.90
2022-09-05T18:23:54.296Z,2.87
2022-09-05T18:26:24.543Z,2.70
2022-09-05T18:29:00.219Z,2.60
2022-09-05T18:31:41.851Z,2.90
2022-09-05T18:34:21.130Z,3.00
2022-09-05T18:36:49.366Z,3.10
2022-09-05T18:39:28.006Z,2.47
2022-09-05T18:42:25.478Z,2.97
2022-09-05T18:44:53.150Z,2.70
2022-09-05T18:47:53.348Z,2.70
2022-09-05T18:50:29.230Z,2.33
2022-09-05T18:53:09.395Z,2.70
2022-09-05T18:56:10.115Z,2.73
2022-09-05T18:58:34.311Z,2.87
2022-09-05T19:01:20.530Z,2.77
2022-09-05T19:03:52.339Z,2.60
2022-09-05T19:06:36.249Z,2.90
2022-09-05T19:09:14.053Z,2.77
2022-09-05T19:12:34.544Z,2.40
2022-09-05T19:14:59.831Z,2.43
2022-09-05T19:17:46.969Z,2.77
2022-09-05T19:20:32.803Z,2.70
2022-09-05T19:23:13.293Z,2.60
2022-09-05T19:25:52.126Z,2.80
2022-09-05T19:36:44.206Z,2.80
2022-09-05T19:36:54.260Z,3.10
2022-09-05T19:37:03.435Z,2.90
2022-09-05T19:37:32.839Z,3.03
2022-09-05T19:43:02.583Z,2.90
2022-09-05T19:47:26.645Z,2.90
2022-09-05T19:47:34.345Z,2.90
2022-09-05T19:48:27.057Z,2.77
2022-09-05T19:50:56.456Z,2.80
2022-09-05T19:53:24.427Z,2.90
2022-09-05T19:55:53.700Z,3.00
2022-09-05T19:58:22.844Z,2.90
2022-09-05T20:01:05.939Z,2.60
2022-09-05T20:03:38.621Z,2.60
2022-09-05T20:06:29.961Z,3.13
2022-09-05T20:09:30.200Z,3.00
2022-09-05T20:11:58.918Z,2.67
2022-09-05T20:14:31.323Z,2.70
2022-09-05T20:17:17.054Z,2.97
2022-09-05T20:19:44.936Z,3.00
2022-09-05T20:22:47.663Z,3.13
2022-09-05T20:25:19.813Z,3.00
2022-09-05T20:27:59.760Z,3.20
2022-09-05T20:30:34.970Z,3.00
2022-09-05T20:33:16.375Z,3.10
2022-09-05T20:41:53.849Z,3.27
2022-09-05T20:43:18.294Z,3.00
2022-09-05T20:43:35.039Z,3.40
2022-09-05T20:44:22.957Z,3.17
2022-09-05T20:53:46.494Z,3.10
2022-09-05T20:54:15.605Z,3.10
2022-09-05T20:54:25.000Z,3.10
2022-09-05T20:55:41.388Z,3.40
2022-09-05T20:58:13.027Z,3.37
2022-09-05T21:01:19.861Z,3.20
2022-09-05T21:03:45.519Z,3.20
2022-09-05T21:06:25.915Z,3.03
2022-09-05T21:08:56.079Z,3.37
2022-09-05T21:11:31.606Z,3.10
2022-09-05T21:14:02.581Z,3.20
2022-09-05T21:16:33.021Z,2.83
2022-09-05T21:18:59.731Z,3.20
2022-09-05T21:21:31.768Z,2.97
2022-09-05T21:24:00.910Z,2.90
2022-09-05T21:26:42.660Z,2.67
2022-09-05T21:29:18.224Z,2.33
2022-09-05T21:31:54.713Z,2.67
2022-09-05T21:34:28.102Z,2.70
2022-09-05T21:37:07.927Z,2.17
2022-09-05T21:39:40.414Z,2.20
2022-09-05T21:44:10.535Z,2.33
2022-09-05T21:47:37.389Z,2.30
2022-09-05T21:47:56.516Z,2.20
2022-09-05T21:50:31.526Z,2.27
2022-09-05T21:54:21.055Z,2.13
2022-09-05T21:59:17.169Z,2.20
2022-09-05T21:59:20.589Z,1.87
2022-09-05T22:01:51.536Z,1.90
2022-09-05T22:04:10.981Z,1.90
2022-09-05T22:06:37.490Z,1.80
2022-09-05T22:09:13.125Z,1.70
2022-09-05T22:11:40.729Z,1.60
2022-09-05T22:14:09.079Z,1.60
2022-09-05T22:16:44.941Z,1.73
2022-09-05T22:19:12.626Z,1.97
2022-09-05T22:21:39.979Z,1.53
2022-09-05T22:24:10.878Z,1.67
2022-09-05T22:26:54.068Z,1.77
2022-09-05T22:29:34.523Z,1.80
2022-09-05T22:32:01.433Z,1.80
2022-09-05T22:34:30.897Z,1.70
2022-09-05T22:36:57.610Z,1.87
2022-09-05T22:39:36.490Z,1.53
2022-09-05T22:42:10.116Z,1.60
2022-09-05T22:44:37.366Z,1.40
2022-09-05T22:47:05.632Z,1.80
2022-09-05T22:49:32.361Z,1.80
2022-09-05T22:51:58.936Z,1.60
2022-09-05T22:54:25.551Z,1.47
2022-09-05T22:56:52.095Z,1.57
2022-09-05T22:59:18.617Z,1.60
2022-09-05T23:01:45.223Z,1.50
2022-09-05T23:04:11.796Z,1.80
2022-09-05T23:06:38.364Z,1.70
2022-09-05T23:09:04.921Z,1.47
2022-09-05T23:11:31.475Z,1.60
2022-09-05T23:13:57.996Z,1.70
2022-09-05T23:16:24.521Z,1.50
2022-09-05T23:18:51.064Z,1.80
2022-09-05T23:21:17.620Z,1.80
2022-09-05T23:23:44.136Z,1.67
2022-09-05T23:26:12.510Z,1.60
2022-09-05T23:28:43.091Z,1.70
2022-09-05T23:31:11.334Z,1.60
2022-09-05T23:33:41.599Z,1.77
2022-09-05T23:36:10.277Z,1.70
2022-09-05T23:38:36.847Z,1.80
2022-09-05T23:41:09.737Z,1.80
2022-09-05T23:43:36.578Z,1.50
2022-09-05T23:46:04.175Z,1.57
2022-09-05T23:48:31.114Z,1.47
2022-09-05T23:51:03.840Z,1.60
2022-09-05T23:53:30.402Z,1.40
2022-09-05T23:56:01.376Z,1.50
2022-09-05T23:58:29.561Z,1.57
